Bei Facebook empfehlenBei Twitter postenGoogle plusPinterest

Das Wetter im Erzgebirge am 14.02.2017

Wetter und Klima am 14.02.2017 Holzhau im Erzgebirge (630m ü.NN)
Letzte gemessene Temperatur und Uhrzeit der Messung23:45:00 Uhr-1.60 °C
Temperatur (Maximum / Höchstwert) und Uhrzeit der Messung13:45:00 Uhr8.30 °C
Temperatur (Minimum / Tiefstwert) und Uhrzeit der Messung23:30:00-2.10 °C
Errechneter Absolutwert der Temperaturschwankungen zwischen Tmin und Tmax des Tages10.40 K
Errechnete Tagesmitteltemperatur2.34896 °C
Gesamt - Niederschlag des Tages (in flüssiger Form)0.00 Liter / m²
Luftdruck (Maximum / Höchstwert) und Zeitpunkt der Messung23:45:00 Uhr1029.80 hPa
Luftdruck (Minimum / Tiefstwert) und Zeitpunkt der Messung05:30:00 Uhr1025.70 hPa
Errechneter Absolutwert der Luftdruckschwankungen des Tages4.10 hPa
Höchste gemessene Windgeschwindigkeit und Uhrzeit der Messung02:45:00 Uhr21.24 km/h
Errechnete Windhäufigkeit in Relation zu den Messwerten des Tages84.37500 %
Niedrigste Windkühle (Windchill) und Zeitpunkt der Messung02:45:00 Uhr-6.20 °C
Taupunkt (Maximum / Höchstwert) und Uhrzeit der Messung15:30:00 Uhr-3.80 °C
Taupunkt (Minimum / Tiefstwert) und Uhrzeit der Messung02:30:00-8.20 °C
Anzahl der automatisch eingelesenen Messwerte 96

Detaillierte Wetter- und Klima- Messwerte für den 14.02.2017 in Holzhau im Erzgebirge (630m ü.NN)
ZeitTemperaturLuftdruckRel. LuftfeuchteWindWindrichtungWindchillTaupunktNiederschlag l/m²
23:45:00-1.60 °C1029.80 hPa72.00 %5.04 km/hSO-3.40 °C-6.50 °C 
23:30:00-2.10 °C1029.50 hPa72.00 %-7.00 °C 
23:15:00-2.10 °C1029.40 hPa70.00 %-7.40 °C 
23:00:00-1.60 °C1029.30 hPa70.00 %-6.90 °C 
22:45:00-1.40 °C1029.30 hPa68.00 %3.60 km/hOSO-1.40 °C-7.10 °C 
22:30:00-1.10 °C1029.40 hPa66.00 %0.72 km/hO-1.10 °C-7.30 °C 
22:15:00-0.50 °C1029.30 hPa64.00 %-7.20 °C 
22:00:00-0.20 °C1029.30 hPa63.00 %-7.10 °C 
21:45:000.20 °C1029.20 hPa62.00 %1.44 km/hONO0.20 °C-6.20 °C 
21:30:000.60 °C1029.30 hPa60.00 %-6.30 °C 
21:15:000.90 °C1029.10 hPa60.00 %4.32 km/hOSO0.90 °C-6.00 °C 
21:00:000.90 °C1028.80 hPa59.00 %1.44 km/hSO0.90 °C-6.20 °C 
20:45:001.10 °C1028.70 hPa59.00 %5.76 km/hSO-0.70 °C-6.00 °C 
20:30:001.30 °C1028.70 hPa58.00 %-6.00 °C 
20:15:001.80 °C1028.80 hPa56.00 %-6.00 °C 
20:00:002.20 °C1029.00 hPa54.00 %4.68 km/hOSO2.20 °C-6.10 °C 
19:45:002.80 °C1028.80 hPa51.00 %8.64 km/hOSO0.40 °C-6.30 °C 
19:30:003.30 °C1028.70 hPa49.00 %7.92 km/hOSO1.20 °C-6.40 °C 
19:15:003.40 °C1028.60 hPa48.00 %2.52 km/hOSO3.40 °C-6.50 °C 
19:00:003.30 °C1028.60 hPa50.00 %7.92 km/hOSO1.20 °C-6.10 °C 
18:45:002.80 °C1028.70 hPa53.00 %14.04 km/hOSO-0.80 °C-5.80 °C 
18:30:002.10 °C1028.70 hPa57.00 %7.20 km/hSO0.00 °C-5.50 °C 
18:15:002.10 °C1029.10 hPa58.00 %-5.30 °C 
18:00:002.40 °C1029.20 hPa57.00 %-5.20 °C 
17:45:002.80 °C1029.20 hPa56.00 %5.76 km/hNO1.30 °C-5.10 °C 
17:30:003.30 °C1029.20 hPa54.00 %9.00 km/hSO0.90 °C-5.10 °C 
17:15:003.70 °C1029.10 hPa53.00 %8.64 km/hSO1.40 °C-5.00 °C 
17:00:004.40 °C1028.90 hPa50.00 %-5.10 °C 
16:45:005.10 °C1029.10 hPa48.00 %2.88 km/hSO5.10 °C-5.00 °C 
16:30:005.80 °C1029.20 hPa47.00 %4.32 km/hNO5.80 °C-4.60 °C 
16:15:006.30 °C1029.00 hPa46.00 %-4.40 °C 
16:00:006.90 °C1028.90 hPa45.00 %1.08 km/hOSO6.90 °C-4.20 °C 
15:45:007.50 °C1029.00 hPa44.00 %5.04 km/hOSO6.90 °C-3.90 °C 
15:30:008.00 °C1029.00 hPa43.00 %-3.80 °C 
15:15:007.80 °C1029.10 hPa43.00 %5.76 km/hONO7.00 °C-4.00 °C 
15:00:007.90 °C1028.80 hPa43.00 %3.96 km/hSO7.90 °C-3.90 °C 
14:45:007.90 °C1028.60 hPa42.00 %1.80 km/hSO7.90 °C-4.20 °C 
14:30:008.00 °C1028.60 hPa42.00 %5.40 km/hO7.40 °C-4.10 °C 
14:15:008.00 °C1028.60 hPa42.00 %4.68 km/hSO8.00 °C-4.10 °C 
14:00:008.10 °C1028.50 hPa41.00 %9.72 km/hSO6.40 °C-4.30 °C 
13:45:008.30 °C1028.40 hPa42.00 %9.36 km/hONO6.70 °C-3.80 °C 
13:30:008.30 °C1028.40 hPa42.00 %15.12 km/hSO5.80 °C-3.80 °C 
13:15:008.10 °C1028.50 hPa42.00 %5.40 km/hSO7.50 °C-4.00 °C 
13:00:008.10 °C1028.40 hPa42.00 %15.12 km/hSO5.60 °C-4.00 °C 
12:45:008.30 °C1028.20 hPa42.00 %8.64 km/hSO6.90 °C-3.80 °C 
12:30:007.90 °C1028.00 hPa43.00 %17.64 km/hSO5.00 °C-3.90 °C 
12:15:007.50 °C1028.00 hPa44.00 %5.76 km/hOSO6.70 °C-3.90 °C 
12:00:007.40 °C1028.00 hPa44.00 %6.12 km/hOSO6.40 °C-4.00 °C 
11:45:007.30 °C1027.90 hPa44.00 %4.32 km/hOSO7.30 °C-4.10 °C 
11:30:006.90 °C1027.80 hPa45.00 %6.48 km/hO5.80 °C-4.20 °C 
11:15:006.80 °C1027.90 hPa46.00 %2.16 km/hOSO6.80 °C-4.00 °C 
11:00:006.60 °C1028.00 hPa46.00 %-4.20 °C 
10:45:006.20 °C1027.50 hPa48.00 %5.76 km/hSO5.20 °C-4.00 °C 
10:30:005.60 °C1027.50 hPa49.00 %-4.30 °C 
10:15:005.00 °C1027.50 hPa51.00 %3.60 km/hSO5.00 °C-4.30 °C 
10:00:004.40 °C1027.40 hPa52.00 %6.12 km/hOSO3.00 °C-4.60 °C 
09:45:003.90 °C1027.30 hPa54.00 %8.64 km/hOSO1.70 °C-4.50 °C 
09:30:003.30 °C1027.40 hPa55.00 %4.32 km/hSO3.30 °C-4.90 °C 
09:15:002.80 °C1027.10 hPa57.00 %5.04 km/hSO1.60 °C-4.90 °C 
09:00:002.10 °C1026.90 hPa60.00 %12.60 km/hSSO-1.40 °C-4.80 °C 
08:45:001.10 °C1026.80 hPa62.00 %10.08 km/hO-2.00 °C-5.40 °C 
08:30:000.30 °C1026.50 hPa63.00 %11.88 km/hOSO-3.40 °C-5.90 °C 
08:15:00-0.20 °C1026.40 hPa64.00 %4.68 km/hSO-0.20 °C-6.90 °C 
08:00:00-0.40 °C1026.40 hPa64.00 %2.88 km/hO-0.40 °C-7.10 °C 
07:45:00-0.50 °C1026.10 hPa64.00 %5.76 km/hOSO-2.50 °C-7.20 °C 
07:30:00-0.40 °C1026.20 hPa63.00 %3.96 km/hSO-0.40 °C-7.30 °C 
07:15:00-0.20 °C1026.00 hPa62.00 %4.68 km/hSO-0.20 °C-7.30 °C 
07:00:00-0.10 °C1026.00 hPa61.00 %2.16 km/hOSO-0.10 °C-7.50 °C 
06:45:000.10 °C1026.00 hPa61.00 %3.96 km/hOSO0.10 °C-6.50 °C 
06:30:00-0.10 °C1025.90 hPa61.00 %1.44 km/hONO-0.10 °C-7.50 °C 
06:15:00-0.20 °C1025.90 hPa61.00 %6.12 km/hO-2.30 °C-7.60 °C 
06:00:00-0.20 °C1025.80 hPa61.00 %3.60 km/hSO-0.20 °C-7.60 °C 
05:45:00-0.20 °C1025.80 hPa62.00 %6.12 km/hOSO-2.30 °C-7.30 °C 
05:30:00-0.80 °C1025.70 hPa64.00 %6.84 km/hSO-3.30 °C-7.40 °C 
05:15:00-1.00 °C1025.90 hPa65.00 %14.40 km/hSSO-5.50 °C-7.40 °C 
05:00:00-1.00 °C1025.70 hPa65.00 %7.92 km/hOSO-3.90 °C-7.40 °C 
04:45:00-0.90 °C1025.80 hPa64.00 %9.00 km/hOSO-4.10 °C-7.50 °C 
04:30:00-0.80 °C1025.80 hPa64.00 %5.76 km/hOSO-2.80 °C-7.40 °C 
04:15:00-0.90 °C1025.90 hPa64.00 %5.40 km/hSO-2.80 °C-7.50 °C 
04:00:00-0.90 °C1025.80 hPa64.00 %10.80 km/hSO-4.60 °C-7.50 °C 
03:45:00-1.00 °C1025.80 hPa64.00 %6.12 km/hSO-3.20 °C-7.60 °C 
03:30:00-1.00 °C1025.80 hPa64.00 %12.24 km/hSO-5.10 °C-7.60 °C 
03:15:00-0.90 °C1025.80 hPa63.00 %12.96 km/hSO-5.10 °C-7.80 °C 
03:00:00-0.70 °C1026.00 hPa62.00 %7.92 km/hSO-3.50 °C-7.80 °C 
02:45:00-0.60 °C1026.10 hPa61.00 %21.24 km/hSSO-6.20 °C-8.00 °C 
02:30:00-0.60 °C1026.00 hPa60.00 %5.40 km/hSO-2.50 °C-8.20 °C 
02:15:00-0.70 °C1026.10 hPa61.00 %11.16 km/hOSO-4.40 °C-8.00 °C 
02:00:00-1.00 °C1026.10 hPa63.00 %16.92 km/hOSO-6.00 °C-7.90 °C 
01:45:00-1.00 °C1026.00 hPa66.00 %6.84 km/hONO-3.50 °C-7.20 °C 
01:30:00-0.90 °C1026.20 hPa67.00 %5.76 km/hSO-3.00 °C-6.90 °C 
01:15:00-1.10 °C1026.10 hPa69.00 %9.36 km/hOSO-4.40 °C-6.60 °C 
01:00:00-0.90 °C1026.40 hPa70.00 %9.72 km/hSO-4.30 °C-6.20 °C 
00:45:00-0.90 °C1026.50 hPa71.00 %1.80 km/hNO-0.90 °C-6.00 °C 
00:30:00-0.90 °C1026.70 hPa71.00 %12.60 km/hOSO-5.00 °C-6.00 °C 
00:15:00-0.90 °C1026.50 hPa72.00 %5.76 km/hOSO-3.00 °C-5.80 °C 
00:00:00-1.00 °C1026.60 hPa72.00 %5.76 km/hSO-3.10 °C-5.90 °C 

Permanenter Link zu dieser Seite: Wetter im Erzgebirge am 14.02.2017
Performance-Info: Die Erstellung der Seite / Statistik(en) / Tabelle(n) erforderte 5 Datenbankserver-Abfrage(n) und dauerte 126 Millisekunden. (Dieser Messwert ist von der Gesamt-Auslastung des Servers abhängig.)
Erzgebirge - Wetter | Erzgebirge - Wetter (Mobilgeräte) | Komplette Klimadatenbank